sensor_id;sensor_type;location;lat;lon;timestamp;P1;durP1;ratioP1;P2;durP2;ratioP2
31306;SDS011;17935;51.120;13.132;2024-03-25T00:00:36;9.70;;;4.93;;
31306;SDS011;17935;51.120;13.132;2024-03-25T00:03:02;11.23;;;4.53;;
31306;SDS011;17935;51.120;13.132;2024-03-25T00:05:28;14.38;;;5.15;;
31306;SDS011;17935;51.120;13.132;2024-03-25T00:07:54;6.78;;;4.80;;
31306;SDS011;17935;51.120;13.132;2024-03-25T00:10:20;8.60;;;5.03;;
31306;SDS011;17935;51.120;13.132;2024-03-25T00:12:46;9.20;;;4.70;;
31306;SDS011;17935;51.120;13.132;2024-03-25T00:15:17;11.05;;;4.95;;
31306;SDS011;17935;51.120;13.132;2024-03-25T00:17:44;8.27;;;5.78;;
31306;SDS011;17935;51.120;13.132;2024-03-25T00:20:11;13.52;;;6.53;;
31306;SDS011;17935;51.120;13.132;2024-03-25T00:22:37;13.18;;;5.65;;
31306;SDS011;17935;51.120;13.132;2024-03-25T00:25:04;9.43;;;5.28;;
31306;SDS011;17935;51.120;13.132;2024-03-25T00:27:30;10.95;;;6.15;;
31306;SDS011;17935;51.120;13.132;2024-03-25T00:29:56;9.40;;;6.03;;
31306;SDS011;17935;51.120;13.132;2024-03-25T00:32:22;11.15;;;5.63;;
31306;SDS011;17935;51.120;13.132;2024-03-25T00:34:48;13.90;;;5.47;;
31306;SDS011;17935;51.120;13.132;2024-03-25T00:37:14;8.10;;;4.75;;
31306;SDS011;17935;51.120;13.132;2024-03-25T00:39:40;5.95;;;4.40;;
31306;SDS011;17935;51.120;13.132;2024-03-25T00:42:06;8.70;;;4.78;;
31306;SDS011;17935;51.120;13.132;2024-03-25T00:44:32;9.20;;;5.35;;
31306;SDS011;17935;51.120;13.132;2024-03-25T00:46:58;9.98;;;5.60;;
31306;SDS011;17935;51.120;13.132;2024-03-25T00:49:24;6.53;;;4.75;;
31306;SDS011;17935;51.120;13.132;2024-03-25T00:51:50;9.98;;;4.75;;
31306;SDS011;17935;51.120;13.132;2024-03-25T00:54:16;9.05;;;5.00;;
31306;SDS011;17935;51.120;13.132;2024-03-25T00:56:42;6.18;;;4.18;;
31306;SDS011;17935;51.120;13.132;2024-03-25T00:59:09;6.07;;;4.47;;
31306;SDS011;17935;51.120;13.132;2024-03-25T01:01:35;10.02;;;4.90;;
31306;SDS011;17935;51.120;13.132;2024-03-25T01:04:01;7.85;;;5.03;;
31306;SDS011;17935;51.120;13.132;2024-03-25T01:06:28;10.55;;;5.57;;
31306;SDS011;17935;51.120;13.132;2024-03-25T01:08:54;10.98;;;5.97;;
31306;SDS011;17935;51.120;13.132;2024-03-25T01:11:20;14.90;;;7.13;;
31306;SDS011;17935;51.120;13.132;2024-03-25T01:13:46;14.07;;;6.88;;
31306;SDS011;17935;51.120;13.132;2024-03-25T01:16:12;16.75;;;8.15;;
31306;SDS011;17935;51.120;13.132;2024-03-25T01:18:38;16.60;;;8.40;;
31306;SDS011;17935;51.120;13.132;2024-03-25T01:21:04;14.27;;;8.23;;
31306;SDS011;17935;51.120;13.132;2024-03-25T01:23:30;17.52;;;8.52;;
31306;SDS011;17935;51.120;13.132;2024-03-25T01:25:56;19.90;;;9.98;;
31306;SDS011;17935;51.120;13.132;2024-03-25T01:28:22;14.98;;;8.98;;
31306;SDS011;17935;51.120;13.132;2024-03-25T01:30:49;16.27;;;8.35;;
31306;SDS011;17935;51.120;13.132;2024-03-25T01:33:15;14.60;;;7.47;;
31306;SDS011;17935;51.120;13.132;2024-03-25T01:35:41;16.80;;;8.30;;
31306;SDS011;17935;51.120;13.132;2024-03-25T01:38:07;13.82;;;7.07;;
31306;SDS011;17935;51.120;13.132;2024-03-25T01:40:33;15.35;;;7.63;;
31306;SDS011;17935;51.120;13.132;2024-03-25T01:43:00;14.98;;;6.90;;
31306;SDS011;17935;51.120;13.132;2024-03-25T01:45:29;13.27;;;7.20;;
31306;SDS011;17935;51.120;13.132;2024-03-25T01:47:56;14.48;;;7.47;;
31306;SDS011;17935;51.120;13.132;2024-03-25T01:50:22;14.68;;;6.72;;
31306;SDS011;17935;51.120;13.132;2024-03-25T01:52:48;15.80;;;6.43;;
31306;SDS011;17935;51.120;13.132;2024-03-25T01:55:15;14.98;;;6.75;;
31306;SDS011;17935;51.120;13.132;2024-03-25T01:57:43;16.60;;;6.93;;
31306;SDS011;17935;51.120;13.132;2024-03-25T02:00:09;16.00;;;6.65;;
31306;SDS011;17935;51.120;13.132;2024-03-25T02:02:36;12.88;;;5.72;;
31306;SDS011;17935;51.120;13.132;2024-03-25T02:05:03;15.43;;;5.53;;
31306;SDS011;17935;51.120;13.132;2024-03-25T02:07:30;19.10;;;6.30;;
31306;SDS011;17935;51.120;13.132;2024-03-25T02:09:56;9.95;;;5.82;;
31306;SDS011;17935;51.120;13.132;2024-03-25T02:12:22;15.85;;;5.95;;
31306;SDS011;17935;51.120;13.132;2024-03-25T02:14:48;15.73;;;5.60;;
31306;SDS011;17935;51.120;13.132;2024-03-25T02:17:14;8.88;;;4.68;;
31306;SDS011;17935;51.120;13.132;2024-03-25T02:19:40;17.45;;;5.65;;
31306;SDS011;17935;51.120;13.132;2024-03-25T02:22:06;11.55;;;5.40;;
31306;SDS011;17935;51.120;13.132;2024-03-25T02:24:33;11.07;;;4.70;;
31306;SDS011;17935;51.120;13.132;2024-03-25T02:26:59;10.45;;;5.30;;
31306;SDS011;17935;51.120;13.132;2024-03-25T02:29:32;8.95;;;4.28;;
31306;SDS011;17935;51.120;13.132;2024-03-25T02:31:58;9.15;;;4.50;;
31306;SDS011;17935;51.120;13.132;2024-03-25T02:34:24;17.52;;;4.55;;
31306;SDS011;17935;51.120;13.132;2024-03-25T02:36:50;9.32;;;4.00;;
31306;SDS011;17935;51.120;13.132;2024-03-25T02:39:17;7.38;;;3.85;;
31306;SDS011;17935;51.120;13.132;2024-03-25T02:41:43;7.28;;;3.22;;
31306;SDS011;17935;51.120;13.132;2024-03-25T02:44:09;10.25;;;3.90;;
31306;SDS011;17935;51.120;13.132;2024-03-25T02:46:35;9.27;;;4.30;;
31306;SDS011;17935;51.120;13.132;2024-03-25T02:49:01;10.40;;;3.67;;
31306;SDS011;17935;51.120;13.132;2024-03-25T02:51:27;5.00;;;3.13;;
31306;SDS011;17935;51.120;13.132;2024-03-25T02:53:53;17.92;;;4.47;;
31306;SDS011;17935;51.120;13.132;2024-03-25T02:56:19;11.18;;;4.05;;
31306;SDS011;17935;51.120;13.132;2024-03-25T02:58:45;9.02;;;3.85;;
31306;SDS011;17935;51.120;13.132;2024-03-25T03:01:11;16.02;;;3.90;;
31306;SDS011;17935;51.120;13.132;2024-03-25T03:03:37;10.98;;;4.47;;
31306;SDS011;17935;51.120;13.132;2024-03-25T03:06:03;8.65;;;3.90;;
31306;SDS011;17935;51.120;13.132;2024-03-25T03:08:29;10.00;;;3.78;;
31306;SDS011;17935;51.120;13.132;2024-03-25T03:10:54;9.73;;;4.38;;
31306;SDS011;17935;51.120;13.132;2024-03-25T03:13:20;14.40;;;4.65;;
31306;SDS011;17935;51.120;13.132;2024-03-25T03:15:46;11.18;;;3.92;;
31306;SDS011;17935;51.120;13.132;2024-03-25T03:18:12;7.88;;;3.03;;
31306;SDS011;17935;51.120;13.132;2024-03-25T03:20:38;8.95;;;4.07;;
31306;SDS011;17935;51.120;13.132;2024-03-25T03:23:04;6.93;;;3.72;;
31306;SDS011;17935;51.120;13.132;2024-03-25T03:25:30;10.30;;;4.30;;
31306;SDS011;17935;51.120;13.132;2024-03-25T03:27:56;10.68;;;4.43;;
31306;SDS011;17935;51.120;13.132;2024-03-25T03:30:22;16.17;;;4.15;;
31306;SDS011;17935;51.120;13.132;2024-03-25T03:32:48;11.10;;;4.35;;
31306;SDS011;17935;51.120;13.132;2024-03-25T03:35:14;8.50;;;4.05;;
31306;SDS011;17935;51.120;13.132;2024-03-25T03:37:40;11.32;;;4.60;;
31306;SDS011;17935;51.120;13.132;2024-03-25T03:40:06;8.77;;;4.13;;
31306;SDS011;17935;51.120;13.132;2024-03-25T03:42:33;10.70;;;3.25;;
31306;SDS011;17935;51.120;13.132;2024-03-25T03:44:59;15.35;;;4.13;;
31306;SDS011;17935;51.120;13.132;2024-03-25T03:47:25;5.90;;;3.53;;
31306;SDS011;17935;51.120;13.132;2024-03-25T03:49:51;8.98;;;3.63;;
31306;SDS011;17935;51.120;13.132;2024-03-25T03:52:17;5.70;;;2.78;;
31306;SDS011;17935;51.120;13.132;2024-03-25T03:54:43;14.13;;;3.47;;
31306;SDS011;17935;51.120;13.132;2024-03-25T03:57:09;5.93;;;2.83;;
31306;SDS011;17935;51.120;13.132;2024-03-25T03:59:35;5.30;;;2.95;;
31306;SDS011;17935;51.120;13.132;2024-03-25T04:02:01;13.65;;;3.63;;
31306;SDS011;17935;51.120;13.132;2024-03-25T04:04:27;7.78;;;2.47;;
31306;SDS011;17935;51.120;13.132;2024-03-25T04:06:52;6.57;;;3.00;;
31306;SDS011;17935;51.120;13.132;2024-03-25T04:09:18;9.32;;;3.05;;
31306;SDS011;17935;51.120;13.132;2024-03-25T04:11:45;8.68;;;2.63;;
31306;SDS011;17935;51.120;13.132;2024-03-25T04:14:11;7.07;;;3.00;;
31306;SDS011;17935;51.120;13.132;2024-03-25T04:16:37;5.57;;;3.42;;
31306;SDS011;17935;51.120;13.132;2024-03-25T04:19:03;9.13;;;3.58;;
31306;SDS011;17935;51.120;13.132;2024-03-25T04:21:29;9.48;;;3.22;;
31306;SDS011;17935;51.120;13.132;2024-03-25T04:23:55;5.07;;;3.28;;
31306;SDS011;17935;51.120;13.132;2024-03-25T04:26:21;15.00;;;4.03;;
31306;SDS011;17935;51.120;13.132;2024-03-25T04:28:47;13.68;;;3.65;;
31306;SDS011;17935;51.120;13.132;2024-03-25T04:31:13;5.95;;;3.45;;
31306;SDS011;17935;51.120;13.132;2024-03-25T04:33:39;7.97;;;3.60;;
31306;SDS011;17935;51.120;13.132;2024-03-25T04:36:05;5.18;;;3.42;;
31306;SDS011;17935;51.120;13.132;2024-03-25T04:38:31;6.55;;;3.33;;
31306;SDS011;17935;51.120;13.132;2024-03-25T04:40:57;11.20;;;3.97;;
31306;SDS011;17935;51.120;13.132;2024-03-25T04:43:23;7.65;;;3.53;;
31306;SDS011;17935;51.120;13.132;2024-03-25T04:45:49;12.73;;;4.82;;
31306;SDS011;17935;51.120;13.132;2024-03-25T04:48:15;14.55;;;5.68;;
31306;SDS011;17935;51.120;13.132;2024-03-25T04:50:41;12.75;;;5.00;;
31306;SDS011;17935;51.120;13.132;2024-03-25T04:53:07;15.95;;;5.50;;
31306;SDS011;17935;51.120;13.132;2024-03-25T04:55:33;12.30;;;6.03;;
31306;SDS011;17935;51.120;13.132;2024-03-25T04:57:59;14.57;;;5.75;;
31306;SDS011;17935;51.120;13.132;2024-03-25T05:00:25;11.77;;;5.32;;
31306;SDS011;17935;51.120;13.132;2024-03-25T05:02:51;22.10;;;5.32;;
31306;SDS011;17935;51.120;13.132;2024-03-25T05:05:17;13.65;;;5.20;;
31306;SDS011;17935;51.120;13.132;2024-03-25T05:07:43;13.48;;;5.57;;
31306;SDS011;17935;51.120;13.132;2024-03-25T05:10:09;14.68;;;6.32;;
31306;SDS011;17935;51.120;13.132;2024-03-25T05:12:35;15.63;;;5.47;;
31306;SDS011;17935;51.120;13.132;2024-03-25T05:15:01;14.57;;;5.55;;
31306;SDS011;17935;51.120;13.132;2024-03-25T05:17:27;11.38;;;5.47;;
31306;SDS011;17935;51.120;13.132;2024-03-25T05:19:53;12.73;;;6.00;;
31306;SDS011;17935;51.120;13.132;2024-03-25T05:22:19;14.35;;;4.97;;
31306;SDS011;17935;51.120;13.132;2024-03-25T05:24:45;17.08;;;5.82;;
31306;SDS011;17935;51.120;13.132;2024-03-25T05:27:11;11.60;;;5.38;;
31306;SDS011;17935;51.120;13.132;2024-03-25T05:29:37;15.63;;;5.32;;
31306;SDS011;17935;51.120;13.132;2024-03-25T05:32:03;14.98;;;6.50;;
31306;SDS011;17935;51.120;13.132;2024-03-25T05:34:29;10.25;;;4.85;;
31306;SDS011;17935;51.120;13.132;2024-03-25T05:36:56;8.35;;;5.30;;
31306;SDS011;17935;51.120;13.132;2024-03-25T05:39:22;10.40;;;4.70;;
31306;SDS011;17935;51.120;13.132;2024-03-25T05:41:48;13.90;;;5.20;;
31306;SDS011;17935;51.120;13.132;2024-03-25T05:44:15;14.13;;;4.38;;
31306;SDS011;17935;51.120;13.132;2024-03-25T05:46:41;8.60;;;4.70;;
31306;SDS011;17935;51.120;13.132;2024-03-25T05:49:07;9.52;;;4.05;;
31306;SDS011;17935;51.120;13.132;2024-03-25T05:51:33;5.93;;;3.63;;
31306;SDS011;17935;51.120;13.132;2024-03-25T05:53:59;5.45;;;3.40;;
31306;SDS011;17935;51.120;13.132;2024-03-25T05:56:25;8.68;;;3.55;;
31306;SDS011;17935;51.120;13.132;2024-03-25T05:58:56;7.43;;;4.10;;
31306;SDS011;17935;51.120;13.132;2024-03-25T06:01:22;11.02;;;3.05;;
31306;SDS011;17935;51.120;13.132;2024-03-25T06:03:48;3.60;;;2.25;;
31306;SDS011;17935;51.120;13.132;2024-03-25T06:06:14;6.85;;;3.03;;
31306;SDS011;17935;51.120;13.132;2024-03-25T06:08:40;8.57;;;3.20;;
31306;SDS011;17935;51.120;13.132;2024-03-25T06:11:06;9.82;;;3.10;;
31306;SDS011;17935;51.120;13.132;2024-03-25T06:13:32;5.40;;;2.35;;
31306;SDS011;17935;51.120;13.132;2024-03-25T06:15:58;8.60;;;2.80;;
31306;SDS011;17935;51.120;13.132;2024-03-25T06:18:24;11.13;;;3.28;;
31306;SDS011;17935;51.120;13.132;2024-03-25T06:20:50;9.13;;;2.72;;
31306;SDS011;17935;51.120;13.132;2024-03-25T06:23:23;4.28;;;2.17;;
31306;SDS011;17935;51.120;13.132;2024-03-25T06:25:49;6.00;;;2.45;;
31306;SDS011;17935;51.120;13.132;2024-03-25T06:28:15;7.97;;;2.67;;
31306;SDS011;17935;51.120;13.132;2024-03-25T06:30:41;5.70;;;2.88;;
31306;SDS011;17935;51.120;13.132;2024-03-25T06:33:26;8.27;;;3.13;;
31306;SDS011;17935;51.120;13.132;2024-03-25T06:36:11;8.13;;;2.40;;
31306;SDS011;17935;51.120;13.132;2024-03-25T06:38:37;10.27;;;3.58;;
31306;SDS011;17935;51.120;13.132;2024-03-25T06:41:03;5.82;;;2.90;;
31306;SDS011;17935;51.120;13.132;2024-03-25T06:43:29;8.48;;;2.83;;
31306;SDS011;17935;51.120;13.132;2024-03-25T06:45:55;6.45;;;2.80;;
31306;SDS011;17935;51.120;13.132;2024-03-25T06:48:21;10.18;;;2.53;;
31306;SDS011;17935;51.120;13.132;2024-03-25T06:50:57;6.53;;;2.47;;
31306;SDS011;17935;51.120;13.132;2024-03-25T06:53:23;9.98;;;2.47;;
31306;SDS011;17935;51.120;13.132;2024-03-25T06:55:52;5.05;;;2.70;;
31306;SDS011;17935;51.120;13.132;2024-03-25T06:58:19;3.22;;;2.13;;
31306;SDS011;17935;51.120;13.132;2024-03-25T07:00:46;9.90;;;2.70;;
31306;SDS011;17935;51.120;13.132;2024-03-25T07:03:13;10.80;;;2.85;;
31306;SDS011;17935;51.120;13.132;2024-03-25T07:05:39;6.60;;;2.45;;
31306;SDS011;17935;51.120;13.132;2024-03-25T07:08:05;12.63;;;2.85;;
31306;SDS011;17935;51.120;13.132;2024-03-25T07:10:31;5.25;;;2.25;;
31306;SDS011;17935;51.120;13.132;2024-03-25T07:12:57;5.63;;;2.25;;
31306;SDS011;17935;51.120;13.132;2024-03-25T07:15:23;4.90;;;2.85;;
31306;SDS011;17935;51.120;13.132;2024-03-25T07:17:49;5.13;;;2.67;;
31306;SDS011;17935;51.120;13.132;2024-03-25T07:20:15;9.40;;;2.72;;
31306;SDS011;17935;51.120;13.132;2024-03-25T07:22:41;5.97;;;2.75;;
31306;SDS011;17935;51.120;13.132;2024-03-25T07:25:07;5.72;;;2.33;;
31306;SDS011;17935;51.120;13.132;2024-03-25T07:27:34;5.32;;;2.67;;
31306;SDS011;17935;51.120;13.132;2024-03-25T07:30:00;8.05;;;2.25;;
31306;SDS011;17935;51.120;13.132;2024-03-25T07:32:27;6.32;;;2.40;;
31306;SDS011;17935;51.120;13.132;2024-03-25T07:34:53;4.30;;;2.10;;
31306;SDS011;17935;51.120;13.132;2024-03-25T07:37:19;6.45;;;2.70;;
31306;SDS011;17935;51.120;13.132;2024-03-25T07:39:45;9.80;;;2.22;;
31306;SDS011;17935;51.120;13.132;2024-03-25T07:42:12;6.45;;;2.25;;
31306;SDS011;17935;51.120;13.132;2024-03-25T07:44:39;7.55;;;2.53;;
31306;SDS011;17935;51.120;13.132;2024-03-25T07:47:05;7.28;;;1.92;;
31306;SDS011;17935;51.120;13.132;2024-03-25T07:49:31;6.15;;;2.38;;
31306;SDS011;17935;51.120;13.132;2024-03-25T07:51:58;9.07;;;4.03;;
31306;SDS011;17935;51.120;13.132;2024-03-25T07:54:24;3.55;;;2.40;;
31306;SDS011;17935;51.120;13.132;2024-03-25T07:56:51;5.05;;;2.30;;
31306;SDS011;17935;51.120;13.132;2024-03-25T07:59:17;8.48;;;2.70;;
31306;SDS011;17935;51.120;13.132;2024-03-25T08:01:43;7.40;;;2.42;;
31306;SDS011;17935;51.120;13.132;2024-03-25T08:04:09;8.75;;;2.53;;
31306;SDS011;17935;51.120;13.132;2024-03-25T08:06:35;4.32;;;2.90;;
31306;SDS011;17935;51.120;13.132;2024-03-25T08:09:02;7.65;;;2.45;;
31306;SDS011;17935;51.120;13.132;2024-03-25T08:11:30;6.20;;;2.30;;
31306;SDS011;17935;51.120;13.132;2024-03-25T08:13:56;10.18;;;2.72;;
31306;SDS011;17935;51.120;13.132;2024-03-25T08:16:22;3.92;;;2.53;;
31306;SDS011;17935;51.120;13.132;2024-03-25T08:18:48;7.85;;;2.30;;
31306;SDS011;17935;51.120;13.132;2024-03-25T08:21:14;6.68;;;2.10;;
31306;SDS011;17935;51.120;13.132;2024-03-25T08:23:40;5.53;;;2.03;;
31306;SDS011;17935;51.120;13.132;2024-03-25T08:26:06;5.18;;;2.63;;
31306;SDS011;17935;51.120;13.132;2024-03-25T08:28:34;7.40;;;2.00;;
31306;SDS011;17935;51.120;13.132;2024-03-25T08:31:00;4.10;;;2.30;;
31306;SDS011;17935;51.120;13.132;2024-03-25T08:33:26;3.60;;;2.00;;
31306;SDS011;17935;51.120;13.132;2024-03-25T08:35:53;5.65;;;1.92;;
31306;SDS011;17935;51.120;13.132;2024-03-25T08:38:19;2.97;;;1.95;;
31306;SDS011;17935;51.120;13.132;2024-03-25T08:40:45;4.20;;;2.13;;
31306;SDS011;17935;51.120;13.132;2024-03-25T08:43:11;4.45;;;1.88;;
31306;SDS011;17935;51.120;13.132;2024-03-25T08:45:37;3.00;;;2.05;;
31306;SDS011;17935;51.120;13.132;2024-03-25T08:48:03;8.50;;;2.22;;
31306;SDS011;17935;51.120;13.132;2024-03-25T08:50:29;4.45;;;2.15;;
31306;SDS011;17935;51.120;13.132;2024-03-25T08:52:55;4.18;;;2.17;;
31306;SDS011;17935;51.120;13.132;2024-03-25T08:55:21;12.68;;;2.58;;
31306;SDS011;17935;51.120;13.132;2024-03-25T08:57:47;7.53;;;2.85;;
31306;SDS011;17935;51.120;13.132;2024-03-25T09:00:13;5.63;;;2.50;;
31306;SDS011;17935;51.120;13.132;2024-03-25T09:02:39;6.68;;;3.00;;
31306;SDS011;17935;51.120;13.132;2024-03-25T09:05:05;5.88;;;3.22;;
31306;SDS011;17935;51.120;13.132;2024-03-25T09:07:35;3.10;;;2.72;;
31306;SDS011;17935;51.120;13.132;2024-03-25T09:10:01;5.70;;;2.90;;
31306;SDS011;17935;51.120;13.132;2024-03-25T09:12:46;4.30;;;2.67;;
31306;SDS011;17935;51.120;13.132;2024-03-25T09:15:12;7.03;;;2.95;;
31306;SDS011;17935;51.120;13.132;2024-03-25T09:17:39;5.47;;;2.72;;
31306;SDS011;17935;51.120;13.132;2024-03-25T09:20:05;5.00;;;2.58;;
31306;SDS011;17935;51.120;13.132;2024-03-25T09:22:41;3.20;;;2.58;;
31306;SDS011;17935;51.120;13.132;2024-03-25T09:25:07;4.78;;;2.72;;
31306;SDS011;17935;51.120;13.132;2024-03-25T09:27:33;6.38;;;3.03;;
31306;SDS011;17935;51.120;13.132;2024-03-25T09:29:59;3.45;;;2.70;;
31306;SDS011;17935;51.120;13.132;2024-03-25T09:32:25;8.50;;;2.45;;
31306;SDS011;17935;51.120;13.132;2024-03-25T09:34:51;3.97;;;2.63;;
31306;SDS011;17935;51.120;13.132;2024-03-25T09:42:08;4.40;;;2.45;;
31306;SDS011;17935;51.120;13.132;2024-03-25T09:44:40;7.40;;;2.78;;
31306;SDS011;17935;51.120;13.132;2024-03-25T09:47:06;3.45;;;2.30;;
31306;SDS011;17935;51.120;13.132;2024-03-25T10:01:41;3.35;;;2.22;;
31306;SDS011;17935;51.120;13.132;2024-03-25T10:04:08;4.07;;;2.17;;
31306;SDS011;17935;51.120;13.132;2024-03-25T10:06:35;2.20;;;1.90;;
31306;SDS011;17935;51.120;13.132;2024-03-25T10:09:04;5.38;;;2.30;;
31306;SDS011;17935;51.120;13.132;2024-03-25T10:11:31;5.00;;;2.10;;
31306;SDS011;17935;51.120;13.132;2024-03-25T10:14:00;3.85;;;2.28;;
31306;SDS011;17935;51.120;13.132;2024-03-25T10:18:52;1.98;;;1.77;;
31306;SDS011;17935;51.120;13.132;2024-03-25T10:21:21;3.55;;;1.30;;
31306;SDS011;17935;51.120;13.132;2024-03-25T10:23:48;3.78;;;2.00;;
31306;SDS011;17935;51.120;13.132;2024-03-25T10:26:30;3.47;;;1.60;;
31306;SDS011;17935;51.120;13.132;2024-03-25T10:29:03;1.95;;;1.45;;
31306;SDS011;17935;51.120;13.132;2024-03-25T10:31:29;2.05;;;1.30;;
31306;SDS011;17935;51.120;13.132;2024-03-25T10:33:55;4.45;;;1.58;;
31306;SDS011;17935;51.120;13.132;2024-03-25T10:36:21;2.60;;;1.65;;
31306;SDS011;17935;51.120;13.132;2024-03-25T10:38:49;4.40;;;1.85;;
31306;SDS011;17935;51.120;13.132;2024-03-25T10:41:18;1.30;;;1.20;;
31306;SDS011;17935;51.120;13.132;2024-03-25T10:43:46;6.07;;;1.30;;
31306;SDS011;17935;51.120;13.132;2024-03-25T10:46:14;3.03;;;1.88;;
31306;SDS011;17935;51.120;13.132;2024-03-25T11:42:20;3.08;;;1.60;;
31306;SDS011;17935;51.120;13.132;2024-03-25T11:44:46;4.60;;;1.75;;
31306;SDS011;17935;51.120;13.132;2024-03-25T11:47:14;6.15;;;1.85;;
31306;SDS011;17935;51.120;13.132;2024-03-25T11:49:40;3.17;;;1.70;;
31306;SDS011;17935;51.120;13.132;2024-03-25T11:52:06;3.33;;;1.88;;
31306;SDS011;17935;51.120;13.132;2024-03-25T11:54:32;5.90;;;2.22;;
31306;SDS011;17935;51.120;13.132;2024-03-25T11:56:58;2.08;;;1.50;;
31306;SDS011;17935;51.120;13.132;2024-03-25T12:04:17;3.33;;;1.60;;
31306;SDS011;17935;51.120;13.132;2024-03-25T12:06:43;2.85;;;1.35;;
31306;SDS011;17935;51.120;13.132;2024-03-25T12:09:10;1.83;;;1.17;;
31306;SDS011;17935;51.120;13.132;2024-03-25T12:11:55;5.50;;;1.85;;
31306;SDS011;17935;51.120;13.132;2024-03-25T12:14:22;12.60;;;1.65;;
31306;SDS011;17935;51.120;13.132;2024-03-25T12:16:49;2.55;;;1.65;;
31306;SDS011;17935;51.120;13.132;2024-03-25T12:19:15;4.55;;;1.50;;
31306;SDS011;17935;51.120;13.132;2024-03-25T12:21:43;3.25;;;1.60;;
31306;SDS011;17935;51.120;13.132;2024-03-25T12:36:20;7.70;;;2.22;;
31306;SDS011;17935;51.120;13.132;2024-03-25T12:38:53;4.45;;;1.83;;
31306;SDS011;17935;51.120;13.132;2024-03-25T12:41:21;5.80;;;1.87;;
31306;SDS011;17935;51.120;13.132;2024-03-25T12:43:48;5.22;;;1.70;;
31306;SDS011;17935;51.120;13.132;2024-03-25T12:46:15;4.18;;;2.08;;
31306;SDS011;17935;51.120;13.132;2024-03-25T12:48:41;4.47;;;1.80;;
31306;SDS011;17935;51.120;13.132;2024-03-25T12:51:14;8.30;;;2.20;;
31306;SDS011;17935;51.120;13.132;2024-03-25T12:53:40;6.75;;;1.92;;
31306;SDS011;17935;51.120;13.132;2024-03-25T12:56:07;7.55;;;2.20;;
31306;SDS011;17935;51.120;13.132;2024-03-25T12:58:33;4.00;;;1.90;;
31306;SDS011;17935;51.120;13.132;2024-03-25T13:00:59;6.13;;;2.65;;
31306;SDS011;17935;51.120;13.132;2024-03-25T13:03:25;4.18;;;2.28;;
31306;SDS011;17935;51.120;13.132;2024-03-25T13:05:51;11.73;;;2.35;;
31306;SDS011;17935;51.120;13.132;2024-03-25T13:08:19;5.70;;;2.45;;
31306;SDS011;17935;51.120;13.132;2024-03-25T13:10:46;5.93;;;2.33;;
31306;SDS011;17935;51.120;13.132;2024-03-25T13:13:12;8.30;;;2.15;;
31306;SDS011;17935;51.120;13.132;2024-03-25T13:15:38;6.10;;;1.90;;
31306;SDS011;17935;51.120;13.132;2024-03-25T13:18:04;4.40;;;2.20;;
31306;SDS011;17935;51.120;13.132;2024-03-25T13:20:30;8.40;;;2.80;;
31306;SDS011;17935;51.120;13.132;2024-03-25T13:22:56;8.65;;;2.10;;
31306;SDS011;17935;51.120;13.132;2024-03-25T13:25:24;4.00;;;2.03;;
31306;SDS011;17935;51.120;13.132;2024-03-25T13:27:50;6.57;;;2.33;;
31306;SDS011;17935;51.120;13.132;2024-03-25T13:30:16;3.63;;;2.10;;
31306;SDS011;17935;51.120;13.132;2024-03-25T13:32:42;5.88;;;1.70;;
31306;SDS011;17935;51.120;13.132;2024-03-25T13:35:08;3.92;;;2.00;;
31306;SDS011;17935;51.120;13.132;2024-03-25T13:37:34;5.82;;;2.15;;
31306;SDS011;17935;51.120;13.132;2024-03-25T13:40:00;4.65;;;1.63;;
31306;SDS011;17935;51.120;13.132;2024-03-25T13:42:26;4.20;;;1.95;;
31306;SDS011;17935;51.120;13.132;2024-03-25T13:44:52;6.18;;;1.80;;
31306;SDS011;17935;51.120;13.132;2024-03-25T13:47:18;7.45;;;2.10;;
31306;SDS011;17935;51.120;13.132;2024-03-25T13:49:44;4.25;;;1.85;;
31306;SDS011;17935;51.120;13.132;2024-03-25T13:52:10;5.25;;;1.90;;
31306;SDS011;17935;51.120;13.132;2024-03-25T13:54:36;2.13;;;1.50;;
31306;SDS011;17935;51.120;13.132;2024-03-25T13:57:02;5.28;;;1.85;;
31306;SDS011;17935;51.120;13.132;2024-03-25T13:59:28;5.20;;;2.08;;
31306;SDS011;17935;51.120;13.132;2024-03-25T14:01:54;3.63;;;1.95;;
31306;SDS011;17935;51.120;13.132;2024-03-25T14:04:20;7.15;;;1.60;;
31306;SDS011;17935;51.120;13.132;2024-03-25T14:06:46;4.05;;;1.90;;
31306;SDS011;17935;51.120;13.132;2024-03-25T14:09:26;6.10;;;2.00;;
31306;SDS011;17935;51.120;13.132;2024-03-25T14:11:52;4.05;;;2.08;;
31306;SDS011;17935;51.120;13.132;2024-03-25T14:14:18;7.18;;;2.63;;
31306;SDS011;17935;51.120;13.132;2024-03-25T14:16:44;3.53;;;2.05;;
31306;SDS011;17935;51.120;13.132;2024-03-25T14:19:10;4.68;;;1.90;;
31306;SDS011;17935;51.120;13.132;2024-03-25T14:21:36;4.15;;;1.98;;
31306;SDS011;17935;51.120;13.132;2024-03-25T14:24:04;3.15;;;1.63;;
31306;SDS011;17935;51.120;13.132;2024-03-25T14:26:30;5.25;;;2.08;;
31306;SDS011;17935;51.120;13.132;2024-03-25T14:28:56;2.70;;;1.98;;
31306;SDS011;17935;51.120;13.132;2024-03-25T14:31:22;6.32;;;1.95;;
31306;SDS011;17935;51.120;13.132;2024-03-25T14:33:48;5.38;;;2.10;;
31306;SDS011;17935;51.120;13.132;2024-03-25T14:36:14;9.02;;;2.60;;
31306;SDS011;17935;51.120;13.132;2024-03-25T14:38:40;6.88;;;2.33;;
31306;SDS011;17935;51.120;13.132;2024-03-25T14:41:06;3.05;;;1.70;;
31306;SDS011;17935;51.120;13.132;2024-03-25T14:43:32;2.88;;;1.88;;
31306;SDS011;17935;51.120;13.132;2024-03-25T14:45:58;4.95;;;1.95;;
31306;SDS011;17935;51.120;13.132;2024-03-25T14:48:24;4.15;;;2.10;;
31306;SDS011;17935;51.120;13.132;2024-03-25T14:50:50;8.32;;;2.30;;
31306;SDS011;17935;51.120;13.132;2024-03-25T14:53:16;5.50;;;2.10;;
31306;SDS011;17935;51.120;13.132;2024-03-25T14:55:45;2.63;;;1.73;;
31306;SDS011;17935;51.120;13.132;2024-03-25T15:03:03;4.22;;;1.90;;
31306;SDS011;17935;51.120;13.132;2024-03-25T15:05:29;4.40;;;1.90;;
31306;SDS011;17935;51.120;13.132;2024-03-25T15:07:55;3.10;;;1.88;;
31306;SDS011;17935;51.120;13.132;2024-03-25T15:10:21;4.32;;;1.38;;
31306;SDS011;17935;51.120;13.132;2024-03-25T15:12:47;1.67;;;1.45;;
31306;SDS011;17935;51.120;13.132;2024-03-25T15:15:13;3.00;;;1.60;;
31306;SDS011;17935;51.120;13.132;2024-03-25T15:17:39;3.15;;;1.48;;
